SCFT

Details ICAO SCFT
Name FUTALEUFU
Region Chile
Timezone America/Santiago (UTC-4.0)
Plans Departing 3
Arriving 4
Stats Elevation 1,148 ft / 350 m (AMSL)
Location -43.189166° -71.851110°
Runways 1
Magnetic Variation 8.401° E
Sunrise 2018-05-25 12:04:56 UTC / 2018-05-25 08:04:56 Local
Sunset 2018-05-25 21:26:40 UTC / 2018-05-25 17:26:40 Local
Advertisement - Login to hide

Runways

ID Width Length Bearing (true) Bearing (mag) Surface Threshold Offset Overrun Length
09 59 ft / 18 m 3,193 ft / 973 m 103.05° 94.65° Asphalt 0 ft / 0 m 0 ft / 0 m
27 59 ft / 18 m 3,193 ft / 973 m 283.04° 274.64° Asphalt 0 ft / 0 m 0 ft / 0 m

Map

Weather


0- 5 10 15 20 25 30 35+ Temperature / ° C

Clouds and Precipitation
Forecast for 2018-05-25 12:00 UTC. Updated 7 minutes ago

Ground ~20,000 ft ~40,000 ft Winds

METAR

SCFT 251100Z AUTO VRB05KT CAVOK 07/05 Q1009

TAF

Not found

Frequencies

Tower 126.70 MHz INFO
Warning: Do not use this data for real-world aviation or navigation. No guarantee of current accuracy is given.